sensor_id;sensor_type;location;lat;lon;timestamp;P1;durP1;ratioP1;P2;durP2;ratioP2
54923;SDS011;40825;52.270;20.984;2023-11-19T00:00:36;39.40;;;16.20;;
54923;SDS011;40825;52.270;20.984;2023-11-19T00:03:25;36.50;;;16.60;;
54923;SDS011;40825;52.270;20.984;2023-11-19T00:05:56;33.90;;;15.70;;
54923;SDS011;40825;52.270;20.984;2023-11-19T00:08:21;41.20;;;17.30;;
54923;SDS011;40825;52.270;20.984;2023-11-19T00:10:50;39.80;;;17.50;;
54923;SDS011;40825;52.270;20.984;2023-11-19T00:13:19;44.80;;;17.70;;
54923;SDS011;40825;52.270;20.984;2023-11-19T00:15:57;39.70;;;18.80;;
54923;SDS011;40825;52.270;20.984;2023-11-19T00:18:22;39.70;;;16.80;;
54923;SDS011;40825;52.270;20.984;2023-11-19T00:20:48;40.30;;;17.40;;
54923;SDS011;40825;52.270;20.984;2023-11-19T00:23:16;37.90;;;16.40;;
54923;SDS011;40825;52.270;20.984;2023-11-19T00:25:45;42.00;;;18.90;;
54923;SDS011;40825;52.270;20.984;2023-11-19T00:28:19;39.20;;;18.00;;
54923;SDS011;40825;52.270;20.984;2023-11-19T00:30:45;42.40;;;17.60;;
54923;SDS011;40825;52.270;20.984;2023-11-19T00:33:11;44.60;;;17.90;;
54923;SDS011;40825;52.270;20.984;2023-11-19T00:35:51;36.80;;;17.60;;
54923;SDS011;40825;52.270;20.984;2023-11-19T00:38:19;40.70;;;17.20;;
54923;SDS011;40825;52.270;20.984;2023-11-19T00:40:44;43.10;;;17.50;;
54923;SDS011;40825;52.270;20.984;2023-11-19T00:43:10;47.10;;;18.40;;
54923;SDS011;40825;52.270;20.984;2023-11-19T00:45:36;40.50;;;16.50;;
54923;SDS011;40825;52.270;20.984;2023-11-19T00:48:02;39.40;;;17.70;;
54923;SDS011;40825;52.270;20.984;2023-11-19T00:50:28;35.90;;;16.90;;
54923;SDS011;40825;52.270;20.984;2023-11-19T00:52:54;41.70;;;18.50;;
54923;SDS011;40825;52.270;20.984;2023-11-19T00:55:20;38.80;;;16.80;;
54923;SDS011;40825;52.270;20.984;2023-11-19T00:57:46;43.40;;;16.60;;
54923;SDS011;40825;52.270;20.984;2023-11-19T01:00:15;42.20;;;18.70;;
54923;SDS011;40825;52.270;20.984;2023-11-19T01:03:08;39.10;;;16.80;;
54923;SDS011;40825;52.270;20.984;2023-11-19T01:05:48;38.60;;;16.60;;
54923;SDS011;40825;52.270;20.984;2023-11-19T01:08:38;38.00;;;15.60;;
54923;SDS011;40825;52.270;20.984;2023-11-19T01:11:23;42.30;;;17.40;;
54923;SDS011;40825;52.270;20.984;2023-11-19T01:13:50;39.30;;;16.60;;
54923;SDS011;40825;52.270;20.984;2023-11-19T01:16:16;39.30;;;17.20;;
54923;SDS011;40825;52.270;20.984;2023-11-19T01:18:42;40.50;;;17.60;;
54923;SDS011;40825;52.270;20.984;2023-11-19T01:21:08;40.40;;;16.30;;
54923;SDS011;40825;52.270;20.984;2023-11-19T01:23:39;41.40;;;18.00;;
54923;SDS011;40825;52.270;20.984;2023-11-19T01:26:08;40.40;;;17.00;;
54923;SDS011;40825;52.270;20.984;2023-11-19T01:28:35;39.00;;;16.40;;
54923;SDS011;40825;52.270;20.984;2023-11-19T01:31:05;38.40;;;17.50;;
54923;SDS011;40825;52.270;20.984;2023-11-19T01:33:35;41.80;;;17.70;;
54923;SDS011;40825;52.270;20.984;2023-11-19T01:36:04;41.80;;;17.60;;
54923;SDS011;40825;52.270;20.984;2023-11-19T01:38:30;41.40;;;17.80;;
54923;SDS011;40825;52.270;20.984;2023-11-19T01:40:56;42.60;;;18.20;;
54923;SDS011;40825;52.270;20.984;2023-11-19T01:43:32;45.60;;;18.60;;
54923;SDS011;40825;52.270;20.984;2023-11-19T01:46:02;45.50;;;19.50;;
54923;SDS011;40825;52.270;20.984;2023-11-19T01:51:03;44.90;;;19.50;;
54923;SDS011;40825;52.270;20.984;2023-11-19T01:53:32;45.80;;;17.90;;
54923;SDS011;40825;52.270;20.984;2023-11-19T01:56:00;44.80;;;17.30;;
54923;SDS011;40825;52.270;20.984;2023-11-19T01:58:40;43.30;;;18.30;;
54923;SDS011;40825;52.270;20.984;2023-11-19T02:13:07;45.40;;;21.70;;
54923;SDS011;40825;52.270;20.984;2023-11-19T02:15:33;48.90;;;20.60;;
54923;SDS011;40825;52.270;20.984;2023-11-19T02:20:57;43.90;;;19.10;;
54923;SDS011;40825;52.270;20.984;2023-11-19T02:28:32;43.40;;;19.00;;
54923;SDS011;40825;52.270;20.984;2023-11-19T02:30:59;53.40;;;20.40;;
54923;SDS011;40825;52.270;20.984;2023-11-19T02:33:30;47.50;;;18.70;;
54923;SDS011;40825;52.270;20.984;2023-11-19T02:35:56;48.20;;;20.80;;
54923;SDS011;40825;52.270;20.984;2023-11-19T02:38:22;48.30;;;19.90;;
54923;SDS011;40825;52.270;20.984;2023-11-19T02:43:16;47.00;;;18.60;;
54923;SDS011;40825;52.270;20.984;2023-11-19T02:45:43;49.70;;;19.20;;
54923;SDS011;40825;52.270;20.984;2023-11-19T02:48:11;47.30;;;18.80;;
54923;SDS011;40825;52.270;20.984;2023-11-19T02:50:37;45.70;;;20.10;;
54923;SDS011;40825;52.270;20.984;2023-11-19T02:53:02;47.90;;;19.80;;
54923;SDS011;40825;52.270;20.984;2023-11-19T02:55:28;47.40;;;19.30;;
54923;SDS011;40825;52.270;20.984;2023-11-19T02:57:59;47.90;;;21.20;;
54923;SDS011;40825;52.270;20.984;2023-11-19T03:00:25;56.40;;;21.80;;
54923;SDS011;40825;52.270;20.984;2023-11-19T03:02:59;49.10;;;19.60;;
54923;SDS011;40825;52.270;20.984;2023-11-19T03:05:32;46.80;;;18.70;;
54923;SDS011;40825;52.270;20.984;2023-11-19T03:07:58;46.00;;;18.20;;
54923;SDS011;40825;52.270;20.984;2023-11-19T03:10:24;48.60;;;18.90;;
54923;SDS011;40825;52.270;20.984;2023-11-19T03:12:49;45.80;;;18.80;;
54923;SDS011;40825;52.270;20.984;2023-11-19T03:15:15;45.80;;;18.50;;
54923;SDS011;40825;52.270;20.984;2023-11-19T03:17:41;49.00;;;18.70;;
54923;SDS011;40825;52.270;20.984;2023-11-19T03:20:11;45.80;;;18.30;;
54923;SDS011;40825;52.270;20.984;2023-11-19T03:22:40;42.60;;;18.30;;
54923;SDS011;40825;52.270;20.984;2023-11-19T03:25:07;47.80;;;19.60;;
54923;SDS011;40825;52.270;20.984;2023-11-19T03:27:39;43.50;;;19.20;;
54923;SDS011;40825;52.270;20.984;2023-11-19T03:30:07;48.10;;;19.20;;
54923;SDS011;40825;52.270;20.984;2023-11-19T03:32:37;52.30;;;19.70;;
54923;SDS011;40825;52.270;20.984;2023-11-19T03:37:45;45.50;;;18.80;;
54923;SDS011;40825;52.270;20.984;2023-11-19T03:40:14;49.40;;;20.00;;
54923;SDS011;40825;52.270;20.984;2023-11-19T03:42:48;42.10;;;17.40;;
54923;SDS011;40825;52.270;20.984;2023-11-19T03:45:19;41.80;;;16.80;;
54923;SDS011;40825;52.270;20.984;2023-11-19T03:48:20;41.00;;;17.30;;
54923;SDS011;40825;52.270;20.984;2023-11-19T03:50:45;44.60;;;17.00;;
54923;SDS011;40825;52.270;20.984;2023-11-19T03:53:11;42.60;;;16.90;;
54923;SDS011;40825;52.270;20.984;2023-11-19T03:55:37;44.30;;;17.90;;
54923;SDS011;40825;52.270;20.984;2023-11-19T03:58:03;38.70;;;15.90;;
54923;SDS011;40825;52.270;20.984;2023-11-19T04:00:31;39.30;;;16.40;;
54923;SDS011;40825;52.270;20.984;2023-11-19T04:03:02;41.20;;;16.10;;
54923;SDS011;40825;52.270;20.984;2023-11-19T04:05:28;43.60;;;16.30;;
54923;SDS011;40825;52.270;20.984;2023-11-19T04:07:54;37.70;;;15.10;;
54923;SDS011;40825;52.270;20.984;2023-11-19T04:10:20;41.40;;;16.80;;
54923;SDS011;40825;52.270;20.984;2023-11-19T04:12:47;44.30;;;15.90;;
54923;SDS011;40825;52.270;20.984;2023-11-19T04:15:13;42.30;;;16.10;;
54923;SDS011;40825;52.270;20.984;2023-11-19T04:17:44;42.20;;;17.80;;
54923;SDS011;40825;52.270;20.984;2023-11-19T04:20:10;41.20;;;16.70;;
54923;SDS011;40825;52.270;20.984;2023-11-19T04:22:39;44.40;;;18.10;;
54923;SDS011;40825;52.270;20.984;2023-11-19T04:25:06;44.10;;;16.90;;
54923;SDS011;40825;52.270;20.984;2023-11-19T04:27:32;46.10;;;18.10;;
54923;SDS011;40825;52.270;20.984;2023-11-19T04:29:58;41.50;;;18.20;;
54923;SDS011;40825;52.270;20.984;2023-11-19T04:32:43;46.00;;;17.30;;
54923;SDS011;40825;52.270;20.984;2023-11-19T04:35:14;40.50;;;16.40;;
54923;SDS011;40825;52.270;20.984;2023-11-19T04:37:44;48.70;;;17.70;;
54923;SDS011;40825;52.270;20.984;2023-11-19T04:40:31;47.40;;;17.70;;
54923;SDS011;40825;52.270;20.984;2023-11-19T04:43:32;46.00;;;17.60;;
54923;SDS011;40825;52.270;20.984;2023-11-19T04:46:21;43.60;;;16.30;;
54923;SDS011;40825;52.270;20.984;2023-11-19T04:48:52;42.90;;;15.40;;
54923;SDS011;40825;52.270;20.984;2023-11-19T04:51:18;38.60;;;15.50;;
54923;SDS011;40825;52.270;20.984;2023-11-19T04:53:43;47.50;;;18.40;;
54923;SDS011;40825;52.270;20.984;2023-11-19T04:56:11;45.50;;;16.40;;
54923;SDS011;40825;52.270;20.984;2023-11-19T05:01:26;44.80;;;15.80;;
54923;SDS011;40825;52.270;20.984;2023-11-19T05:03:53;46.40;;;16.90;;
54923;SDS011;40825;52.270;20.984;2023-11-19T05:06:31;49.30;;;17.20;;
54923;SDS011;40825;52.270;20.984;2023-11-19T05:08:59;40.00;;;16.40;;
54923;SDS011;40825;52.270;20.984;2023-11-19T05:11:37;43.70;;;15.40;;
54923;SDS011;40825;52.270;20.984;2023-11-19T05:14:04;42.70;;;16.10;;
54923;SDS011;40825;52.270;20.984;2023-11-19T05:16:39;44.20;;;16.80;;
54923;SDS011;40825;52.270;20.984;2023-11-19T05:19:14;41.70;;;15.40;;
54923;SDS011;40825;52.270;20.984;2023-11-19T05:21:42;40.00;;;14.90;;
54923;SDS011;40825;52.270;20.984;2023-11-19T05:24:11;41.70;;;16.10;;
54923;SDS011;40825;52.270;20.984;2023-11-19T05:26:37;46.00;;;17.00;;
54923;SDS011;40825;52.270;20.984;2023-11-19T05:29:08;41.60;;;15.90;;
54923;SDS011;40825;52.270;20.984;2023-11-19T05:31:34;39.60;;;14.90;;
54923;SDS011;40825;52.270;20.984;2023-11-19T05:34:00;37.60;;;14.80;;
54923;SDS011;40825;52.270;20.984;2023-11-19T05:36:26;37.50;;;13.90;;
54923;SDS011;40825;52.270;20.984;2023-11-19T05:38:54;33.80;;;12.40;;
54923;SDS011;40825;52.270;20.984;2023-11-19T05:41:20;31.30;;;12.20;;
54923;SDS011;40825;52.270;20.984;2023-11-19T05:43:45;32.50;;;12.90;;
54923;SDS011;40825;52.270;20.984;2023-11-19T05:46:11;30.30;;;12.80;;
54923;SDS011;40825;52.270;20.984;2023-11-19T05:48:39;33.60;;;12.00;;
54923;SDS011;40825;52.270;20.984;2023-11-19T05:51:07;33.80;;;12.90;;
54923;SDS011;40825;52.270;20.984;2023-11-19T05:53:49;32.40;;;12.20;;
54923;SDS011;40825;52.270;20.984;2023-11-19T05:56:20;31.40;;;11.80;;
54923;SDS011;40825;52.270;20.984;2023-11-19T05:58:49;28.40;;;11.30;;
54923;SDS011;40825;52.270;20.984;2023-11-19T06:01:28;29.00;;;11.40;;
54923;SDS011;40825;52.270;20.984;2023-11-19T06:04:03;29.00;;;12.10;;
54923;SDS011;40825;52.270;20.984;2023-11-19T06:06:49;26.20;;;10.60;;
54923;SDS011;40825;52.270;20.984;2023-11-19T06:09:14;30.70;;;12.80;;
54923;SDS011;40825;52.270;20.984;2023-11-19T06:11:42;33.50;;;11.30;;
54923;SDS011;40825;52.270;20.984;2023-11-19T06:14:09;24.90;;;10.90;;
54923;SDS011;40825;52.270;20.984;2023-11-19T06:16:35;24.30;;;9.90;;
54923;SDS011;40825;52.270;20.984;2023-11-19T06:19:02;25.70;;;10.10;;
54923;SDS011;40825;52.270;20.984;2023-11-19T06:21:27;27.00;;;11.80;;
54923;SDS011;40825;52.270;20.984;2023-11-19T06:24:02;22.70;;;9.50;;
54923;SDS011;40825;52.270;20.984;2023-11-19T06:26:32;21.40;;;8.60;;
54923;SDS011;40825;52.270;20.984;2023-11-19T06:28:58;22.60;;;8.40;;
54923;SDS011;40825;52.270;20.984;2023-11-19T06:31:24;20.80;;;7.30;;
54923;SDS011;40825;52.270;20.984;2023-11-19T06:33:49;23.50;;;9.50;;
54923;SDS011;40825;52.270;20.984;2023-11-19T06:36:17;20.60;;;9.30;;
54923;SDS011;40825;52.270;20.984;2023-11-19T06:38:43;21.10;;;9.80;;
54923;SDS011;40825;52.270;20.984;2023-11-19T06:41:11;18.20;;;8.60;;
54923;SDS011;40825;52.270;20.984;2023-11-19T06:43:37;18.40;;;8.20;;
54923;SDS011;40825;52.270;20.984;2023-11-19T06:46:02;20.30;;;7.60;;
54923;SDS011;40825;52.270;20.984;2023-11-19T06:51:28;16.40;;;6.00;;
54923;SDS011;40825;52.270;20.984;2023-11-19T06:53:59;17.10;;;7.40;;
54923;SDS011;40825;52.270;20.984;2023-11-19T06:56:49;21.10;;;8.20;;
54923;SDS011;40825;52.270;20.984;2023-11-19T06:59:15;20.80;;;7.90;;
54923;SDS011;40825;52.270;20.984;2023-11-19T07:01:40;21.10;;;8.00;;
54923;SDS011;40825;52.270;20.984;2023-11-19T07:04:16;19.90;;;7.40;;
54923;SDS011;40825;52.270;20.984;2023-11-19T07:06:41;19.60;;;7.50;;
54923;SDS011;40825;52.270;20.984;2023-11-19T07:09:07;16.80;;;6.60;;
54923;SDS011;40825;52.270;20.984;2023-11-19T07:11:36;17.00;;;7.40;;
54923;SDS011;40825;52.270;20.984;2023-11-19T07:14:08;16.10;;;7.10;;
54923;SDS011;40825;52.270;20.984;2023-11-19T07:16:34;16.00;;;7.40;;
54923;SDS011;40825;52.270;20.984;2023-11-19T07:19:02;16.90;;;7.20;;
54923;SDS011;40825;52.270;20.984;2023-11-19T07:21:29;16.70;;;7.40;;
54923;SDS011;40825;52.270;20.984;2023-11-19T07:24:03;18.30;;;7.90;;
54923;SDS011;40825;52.270;20.984;2023-11-19T07:26:47;18.30;;;7.50;;
54923;SDS011;40825;52.270;20.984;2023-11-19T07:29:17;18.20;;;7.40;;
54923;SDS011;40825;52.270;20.984;2023-11-19T07:31:43;17.70;;;8.00;;
54923;SDS011;40825;52.270;20.984;2023-11-19T07:34:11;19.40;;;7.90;;
54923;SDS011;40825;52.270;20.984;2023-11-19T07:36:37;17.80;;;7.70;;
54923;SDS011;40825;52.270;20.984;2023-11-19T07:39:03;15.80;;;7.70;;
54923;SDS011;40825;52.270;20.984;2023-11-19T07:41:30;15.10;;;6.60;;
54923;SDS011;40825;52.270;20.984;2023-11-19T07:43:59;13.60;;;6.20;;
54923;SDS011;40825;52.270;20.984;2023-11-19T07:46:27;13.90;;;6.10;;
54923;SDS011;40825;52.270;20.984;2023-11-19T07:48:57;14.80;;;6.50;;
54923;SDS011;40825;52.270;20.984;2023-11-19T07:51:36;14.50;;;6.40;;
54923;SDS011;40825;52.270;20.984;2023-11-19T07:54:04;16.90;;;6.50;;
54923;SDS011;40825;52.270;20.984;2023-11-19T07:56:29;17.70;;;7.10;;
54923;SDS011;40825;52.270;20.984;2023-11-19T07:58:58;14.80;;;6.70;;
54923;SDS011;40825;52.270;20.984;2023-11-19T08:01:29;14.80;;;6.90;;
54923;SDS011;40825;52.270;20.984;2023-11-19T08:03:55;19.40;;;8.50;;
54923;SDS011;40825;52.270;20.984;2023-11-19T08:06:20;17.30;;;7.80;;
54923;SDS011;40825;52.270;20.984;2023-11-19T08:08:46;16.20;;;7.40;;
54923;SDS011;40825;52.270;20.984;2023-11-19T08:11:13;16.50;;;7.70;;
54923;SDS011;40825;52.270;20.984;2023-11-19T08:13:40;20.50;;;9.30;;
54923;SDS011;40825;52.270;20.984;2023-11-19T08:16:06;17.90;;;7.70;;
54923;SDS011;40825;52.270;20.984;2023-11-19T08:18:32;17.80;;;7.20;;
54923;SDS011;40825;52.270;20.984;2023-11-19T08:21:00;18.80;;;8.10;;
54923;SDS011;40825;52.270;20.984;2023-11-19T08:23:30;17.80;;;8.70;;
54923;SDS011;40825;52.270;20.984;2023-11-19T08:26:10;18.90;;;8.30;;
54923;SDS011;40825;52.270;20.984;2023-11-19T08:28:45;16.60;;;7.70;;
54923;SDS011;40825;52.270;20.984;2023-11-19T08:31:13;18.30;;;9.30;;
54923;SDS011;40825;52.270;20.984;2023-11-19T08:33:44;19.50;;;8.60;;
54923;SDS011;40825;52.270;20.984;2023-11-19T08:36:16;19.20;;;7.80;;
54923;SDS011;40825;52.270;20.984;2023-11-19T08:38:45;19.40;;;8.50;;
54923;SDS011;40825;52.270;20.984;2023-11-19T08:41:19;17.70;;;7.80;;
54923;SDS011;40825;52.270;20.984;2023-11-19T08:43:46;16.50;;;7.70;;
54923;SDS011;40825;52.270;20.984;2023-11-19T08:46:12;18.60;;;9.10;;
54923;SDS011;40825;52.270;20.984;2023-11-19T08:48:38;18.00;;;8.60;;
54923;SDS011;40825;52.270;20.984;2023-11-19T08:51:14;19.50;;;7.90;;
54923;SDS011;40825;52.270;20.984;2023-11-19T08:53:53;16.90;;;7.80;;
54923;SDS011;40825;52.270;20.984;2023-11-19T08:56:22;15.90;;;7.60;;
54923;SDS011;40825;52.270;20.984;2023-11-19T08:58:48;20.50;;;8.10;;
54923;SDS011;40825;52.270;20.984;2023-11-19T09:01:23;18.50;;;7.60;;
54923;SDS011;40825;52.270;20.984;2023-11-19T09:04:08;19.20;;;8.00;;
54923;SDS011;40825;52.270;20.984;2023-11-19T09:07:16;17.40;;;8.00;;
54923;SDS011;40825;52.270;20.984;2023-11-19T09:10:10;17.70;;;7.40;;
54923;SDS011;40825;52.270;20.984;2023-11-19T09:12:37;17.50;;;8.50;;
54923;SDS011;40825;52.270;20.984;2023-11-19T09:15:05;17.50;;;7.30;;
54923;SDS011;40825;52.270;20.984;2023-11-19T09:17:35;16.80;;;7.30;;
54923;SDS011;40825;52.270;20.984;2023-11-19T09:20:01;15.40;;;6.60;;
54923;SDS011;40825;52.270;20.984;2023-11-19T09:22:29;16.00;;;6.90;;
54923;SDS011;40825;52.270;20.984;2023-11-19T09:25:24;16.50;;;7.80;;
54923;SDS011;40825;52.270;20.984;2023-11-19T09:28:06;17.80;;;7.20;;
54923;SDS011;40825;52.270;20.984;2023-11-19T09:31:18;15.80;;;7.10;;
54923;SDS011;40825;52.270;20.984;2023-11-19T09:34:01;16.70;;;7.80;;
54923;SDS011;40825;52.270;20.984;2023-11-19T09:36:30;19.40;;;8.70;;
54923;SDS011;40825;52.270;20.984;2023-11-19T09:38:59;20.80;;;8.60;;
54923;SDS011;40825;52.270;20.984;2023-11-19T09:41:29;15.60;;;7.60;;
54923;SDS011;40825;52.270;20.984;2023-11-19T09:43:56;16.30;;;7.70;;
54923;SDS011;40825;52.270;20.984;2023-11-19T09:46:22;17.30;;;8.00;;
54923;SDS011;40825;52.270;20.984;2023-11-19T09:49:34;19.40;;;7.80;;
54923;SDS011;40825;52.270;20.984;2023-11-19T09:52:09;16.00;;;7.70;;
54923;SDS011;40825;52.270;20.984;2023-11-19T09:54:35;19.10;;;9.10;;
54923;SDS011;40825;52.270;20.984;2023-11-19T09:57:01;20.40;;;8.40;;
54923;SDS011;40825;52.270;20.984;2023-11-19T09:59:35;19.90;;;8.80;;
54923;SDS011;40825;52.270;20.984;2023-11-19T10:02:03;18.20;;;7.70;;
54923;SDS011;40825;52.270;20.984;2023-11-19T10:04:30;21.40;;;10.10;;
54923;SDS011;40825;52.270;20.984;2023-11-19T10:07:23;20.40;;;9.90;;
54923;SDS011;40825;52.270;20.984;2023-11-19T10:09:50;20.30;;;8.80;;
54923;SDS011;40825;52.270;20.984;2023-11-19T10:12:19;19.60;;;8.60;;
54923;SDS011;40825;52.270;20.984;2023-11-19T10:14:45;22.30;;;9.80;;
54923;SDS011;40825;52.270;20.984;2023-11-19T10:17:11;20.70;;;9.00;;
54923;SDS011;40825;52.270;20.984;2023-11-19T10:22:06;18.90;;;8.50;;
54923;SDS011;40825;52.270;20.984;2023-11-19T10:24:33;22.70;;;10.40;;
54923;SDS011;40825;52.270;20.984;2023-11-19T10:27:00;21.60;;;9.50;;
54923;SDS011;40825;52.270;20.984;2023-11-19T10:29:29;21.40;;;9.00;;
54923;SDS011;40825;52.270;20.984;2023-11-19T10:31:57;23.50;;;9.40;;
54923;SDS011;40825;52.270;20.984;2023-11-19T10:34:24;21.60;;;9.50;;
54923;SDS011;40825;52.270;20.984;2023-11-19T10:36:55;21.50;;;9.30;;
54923;SDS011;40825;52.270;20.984;2023-11-19T10:39:23;22.20;;;10.30;;
54923;SDS011;40825;52.270;20.984;2023-11-19T10:42:31;21.10;;;9.60;;
54923;SDS011;40825;52.270;20.984;2023-11-19T10:45:25;24.60;;;10.60;;
54923;SDS011;40825;52.270;20.984;2023-11-19T10:47:51;22.30;;;10.10;;
54923;SDS011;40825;52.270;20.984;2023-11-19T10:50:17;22.20;;;10.80;;
54923;SDS011;40825;52.270;20.984;2023-11-19T10:52:46;23.00;;;10.40;;
54923;SDS011;40825;52.270;20.984;2023-11-19T10:55:13;21.00;;;9.80;;
54923;SDS011;40825;52.270;20.984;2023-11-19T10:57:45;22.30;;;10.30;;
54923;SDS011;40825;52.270;20.984;2023-11-19T11:00:14;22.80;;;10.60;;
54923;SDS011;40825;52.270;20.984;2023-11-19T11:02:50;21.60;;;10.10;;
54923;SDS011;40825;52.270;20.984;2023-11-19T11:05:21;23.40;;;9.90;;
54923;SDS011;40825;52.270;20.984;2023-11-19T11:07:47;20.10;;;9.40;;
54923;SDS011;40825;52.270;20.984;2023-11-19T11:10:16;21.90;;;9.70;;
54923;SDS011;40825;52.270;20.984;2023-11-19T11:12:41;20.00;;;8.70;;
54923;SDS011;40825;52.270;20.984;2023-11-19T11:15:25;21.40;;;9.30;;
54923;SDS011;40825;52.270;20.984;2023-11-19T11:18:18;20.90;;;10.10;;
54923;SDS011;40825;52.270;20.984;2023-11-19T11:21:08;21.60;;;9.20;;
54923;SDS011;40825;52.270;20.984;2023-11-19T11:24:19;19.50;;;8.90;;
54923;SDS011;40825;52.270;20.984;2023-11-19T11:30:35;23.50;;;10.20;;
54923;SDS011;40825;52.270;20.984;2023-11-19T11:35:49;22.20;;;10.00;;
54923;SDS011;40825;52.270;20.984;2023-11-19T11:38:22;22.90;;;9.10;;
54923;SDS011;40825;52.270;20.984;2023-11-19T11:43:53;20.10;;;11.10;;
54923;SDS011;40825;52.270;20.984;2023-11-19T11:48:57;25.00;;;10.70;;
54923;SDS011;40825;52.270;20.984;2023-11-19T11:57:27;25.80;;;10.50;;
54923;SDS011;40825;52.270;20.984;2023-11-19T11:59:57;24.30;;;11.10;;
54923;SDS011;40825;52.270;20.984;2023-11-19T12:03:12;20.30;;;9.00;;
54923;SDS011;40825;52.270;20.984;2023-11-19T12:05:56;22.90;;;10.00;;
54923;SDS011;40825;52.270;20.984;2023-11-19T12:08:27;23.90;;;10.90;;
54923;SDS011;40825;52.270;20.984;2023-11-19T12:11:02;25.50;;;11.60;;
54923;SDS011;40825;52.270;20.984;2023-11-19T12:13:47;22.40;;;10.30;;
54923;SDS011;40825;52.270;20.984;2023-11-19T12:16:21;24.20;;;10.90;;
54923;SDS011;40825;52.270;20.984;2023-11-19T12:18:47;24.90;;;10.80;;
54923;SDS011;40825;52.270;20.984;2023-11-19T12:21:26;23.40;;;10.80;;
54923;SDS011;40825;52.270;20.984;2023-11-19T12:23:57;23.10;;;10.40;;
54923;SDS011;40825;52.270;20.984;2023-11-19T12:26:35;23.60;;;10.20;;
54923;SDS011;40825;52.270;20.984;2023-11-19T12:29:03;24.40;;;11.10;;
54923;SDS011;40825;52.270;20.984;2023-11-19T12:31:32;24.30;;;10.50;;
54923;SDS011;40825;52.270;20.984;2023-11-19T12:34:00;24.50;;;10.70;;
54923;SDS011;40825;52.270;20.984;2023-11-19T12:36:26;21.40;;;9.50;;
54923;SDS011;40825;52.270;20.984;2023-11-19T12:38:51;23.50;;;10.50;;
54923;SDS011;40825;52.270;20.984;2023-11-19T12:41:17;22.80;;;10.70;;
54923;SDS011;40825;52.270;20.984;2023-11-19T12:43:45;23.40;;;10.50;;
54923;SDS011;40825;52.270;20.984;2023-11-19T12:46:18;25.60;;;11.40;;
54923;SDS011;40825;52.270;20.984;2023-11-19T12:48:48;26.10;;;10.60;;
54923;SDS011;40825;52.270;20.984;2023-11-19T12:51:21;25.00;;;11.70;;
54923;SDS011;40825;52.270;20.984;2023-11-19T12:53:50;23.40;;;10.70;;
54923;SDS011;40825;52.270;20.984;2023-11-19T12:56:20;28.10;;;11.00;;
54923;SDS011;40825;52.270;20.984;2023-11-19T12:58:46;25.40;;;10.30;;
54923;SDS011;40825;52.270;20.984;2023-11-19T13:01:15;24.20;;;9.80;;
54923;SDS011;40825;52.270;20.984;2023-11-19T13:03:45;22.40;;;10.40;;
54923;SDS011;40825;52.270;20.984;2023-11-19T13:06:13;22.70;;;9.60;;
54923;SDS011;40825;52.270;20.984;2023-11-19T13:11:11;21.00;;;10.50;;
54923;SDS011;40825;52.270;20.984;2023-11-19T13:14:00;23.10;;;10.40;;
54923;SDS011;40825;52.270;20.984;2023-11-19T13:16:29;22.80;;;11.00;;
54923;SDS011;40825;52.270;20.984;2023-11-19T13:18:56;24.30;;;11.40;;
54923;SDS011;40825;52.270;20.984;2023-11-19T13:21:25;24.10;;;10.50;;
54923;SDS011;40825;52.270;20.984;2023-11-19T13:23:51;26.20;;;10.80;;
54923;SDS011;40825;52.270;20.984;2023-11-19T13:26:17;24.80;;;10.30;;
54923;SDS011;40825;52.270;20.984;2023-11-19T13:28:43;25.10;;;12.50;;
54923;SDS011;40825;52.270;20.984;2023-11-19T13:31:08;26.10;;;11.00;;
54923;SDS011;40825;52.270;20.984;2023-11-19T13:33:35;23.60;;;11.30;;
54923;SDS011;40825;52.270;20.984;2023-11-19T13:36:02;25.30;;;10.40;;
54923;SDS011;40825;52.270;20.984;2023-11-19T13:38:31;22.50;;;9.70;;
54923;SDS011;40825;52.270;20.984;2023-11-19T13:41:00;25.80;;;11.80;;
54923;SDS011;40825;52.270;20.984;2023-11-19T13:43:37;24.50;;;10.40;;
54923;SDS011;40825;52.270;20.984;2023-11-19T13:46:08;23.80;;;12.20;;
54923;SDS011;40825;52.270;20.984;2023-11-19T13:48:37;27.20;;;12.50;;
54923;SDS011;40825;52.270;20.984;2023-11-19T13:51:05;23.70;;;10.70;;
54923;SDS011;40825;52.270;20.984;2023-11-19T13:53:31;25.40;;;11.00;;
54923;SDS011;40825;52.270;20.984;2023-11-19T13:56:00;26.60;;;12.00;;
54923;SDS011;40825;52.270;20.984;2023-11-19T13:58:26;25.00;;;11.40;;
54923;SDS011;40825;52.270;20.984;2023-11-19T14:00:51;24.60;;;11.50;;
54923;SDS011;40825;52.270;20.984;2023-11-19T14:03:20;26.40;;;12.50;;
54923;SDS011;40825;52.270;20.984;2023-11-19T14:05:46;28.20;;;12.50;;
54923;SDS011;40825;52.270;20.984;2023-11-19T14:08:12;27.50;;;12.50;;
54923;SDS011;40825;52.270;20.984;2023-11-19T14:10:38;25.10;;;11.40;;
54923;SDS011;40825;52.270;20.984;2023-11-19T14:13:08;26.30;;;11.40;;
54923;SDS011;40825;52.270;20.984;2023-11-19T14:15:42;27.00;;;12.10;;
54923;SDS011;40825;52.270;20.984;2023-11-19T14:18:08;27.60;;;12.50;;
54923;SDS011;40825;52.270;20.984;2023-11-19T14:20:33;29.60;;;12.00;;
54923;SDS011;40825;52.270;20.984;2023-11-19T14:23:04;30.00;;;13.20;;
54923;SDS011;40825;52.270;20.984;2023-11-19T14:25:29;28.90;;;11.90;;
54923;SDS011;40825;52.270;20.984;2023-11-19T14:27:55;26.00;;;12.40;;
54923;SDS011;40825;52.270;20.984;2023-11-19T14:30:24;28.40;;;12.60;;
54923;SDS011;40825;52.270;20.984;2023-11-19T14:32:49;29.90;;;14.40;;
54923;SDS011;40825;52.270;20.984;2023-11-19T14:35:15;29.90;;;13.70;;
54923;SDS011;40825;52.270;20.984;2023-11-19T14:37:46;29.00;;;12.80;;
54923;SDS011;40825;52.270;20.984;2023-11-19T14:40:14;28.70;;;12.80;;
54923;SDS011;40825;52.270;20.984;2023-11-19T14:42:40;30.70;;;14.40;;
54923;SDS011;40825;52.270;20.984;2023-11-19T14:45:08;28.70;;;12.70;;
54923;SDS011;40825;52.270;20.984;2023-11-19T14:47:37;33.10;;;14.80;;
54923;SDS011;40825;52.270;20.984;2023-11-19T14:50:08;32.90;;;14.30;;
54923;SDS011;40825;52.270;20.984;2023-11-19T14:52:36;27.00;;;12.10;;
54923;SDS011;40825;52.270;20.984;2023-11-19T14:55:07;32.20;;;13.40;;
54923;SDS011;40825;52.270;20.984;2023-11-19T15:00:11;31.40;;;13.40;;
54923;SDS011;40825;52.270;20.984;2023-11-19T15:02:40;31.60;;;13.60;;
54923;SDS011;40825;52.270;20.984;2023-11-19T15:05:07;34.70;;;14.70;;
54923;SDS011;40825;52.270;20.984;2023-11-19T15:07:39;29.10;;;13.90;;
54923;SDS011;40825;52.270;20.984;2023-11-19T15:10:05;30.40;;;14.80;;
54923;SDS011;40825;52.270;20.984;2023-11-19T15:12:38;29.30;;;12.60;;
54923;SDS011;40825;52.270;20.984;2023-11-19T15:15:08;26.90;;;12.30;;
54923;SDS011;40825;52.270;20.984;2023-11-19T15:17:35;29.80;;;12.70;;
54923;SDS011;40825;52.270;20.984;2023-11-19T15:20:04;28.00;;;12.60;;
54923;SDS011;40825;52.270;20.984;2023-11-19T15:22:35;32.50;;;14.00;;
54923;SDS011;40825;52.270;20.984;2023-11-19T15:25:01;31.10;;;12.80;;
54923;SDS011;40825;52.270;20.984;2023-11-19T15:27:33;26.60;;;11.70;;
54923;SDS011;40825;52.270;20.984;2023-11-19T15:29:59;27.40;;;12.70;;
54923;SDS011;40825;52.270;20.984;2023-11-19T15:32:27;29.50;;;13.20;;